^^
Saratoga-Weather Station Historical Data
Daily Summary for January 19, 2020 Units:  Both    English   Metric
Daily Weekly Monthly Yearly Custom
  High: Low: Average:
Temperature: 55.2 °F /  12.9 °C 38.7 °F /  3.7 °C 46.9 °F /  8.3 °C
Dew Point: 51.4 °F /  10.8 °C 38.1 °F /  3.4 °C 44.6 °F /  7 °C
Humidity: 99% 76% 92%
Wind Speed: 6mph /  9.7km/h - 0.7mph /  1.1km/h
Wind Gust: 8mph /  12.9km/h - -
Wind- - ESE
Pressure: 30.1 in /  1018.3 hPa 30 in /  1014.9 hPa -
Precipitation: 0.01 in /  0.2 mm    
Historical Graphs
 
 
Tabular Data for January 19, 2020
Time Temperature Dew Point Pressure Wind Wind Speed Wind Gust Humidity Rainfall Rate (Hourly) solar
00:03 40.6 °F /  4.8 °C 40.1 °F /  4.5 °C 30.1in /  1018.3hPa Calm     98% 0in /  0.0mm 0 W/m2
00:08 40.6 °F /  4.8 °C 40.1 °F /  4.5 °C 30.1in /  1018.3hPa Calm     98% 0in /  0.0mm 0 W/m2
00:13 40.5 °F /  4.7 °C 39.9 °F /  4.4 °C 30.1in /  1018.0hPa Calm     98% 0in /  0.0mm 0 W/m2
00:18 40.3 °F /  4.6 °C 39.7 °F /  4.3 °C 30.1in /  1018.0hPa Calm     98% 0in /  0.0mm 0 W/m2
00:23 39.9 °F /  4.4 °C 39.4 °F /  4.1 °C 30.1in /  1018.0hPa Calm     98% 0in /  0.0mm 0 W/m2
00:28 39.7 °F /  4.3 °C 39.2 °F /  4 °C 30.1in /  1018.0hPa Calm     98% 0in /  0.0mm 0 W/m2
00:33 39.6 °F /  4.2 °C 39 °F /  3.9 °C 30.1in /  1018.0hPa Calm     98% 0in /  0.0mm 0 W/m2
00:38 39.4 °F /  4.1 °C 38.8 °F /  3.8 °C 30.1in /  1018.0hPa Calm     98% 0in /  0.0mm 0 W/m2
00:43 39.2 °F /  4 °C 38.7 °F /  3.7 °C 30.1in /  1018.0hPa Calm     98% 0in /  0.0mm 0 W/m2
00:48 39 °F /  3.9 °C 38.5 °F /  3.6 °C 30.1in /  1018.0hPa Calm     98% 0in /  0.0mm 0 W/m2
00:53 39 °F /  3.9 °C 38.5 °F /  3.6 °C 30.1in /  1018.0hPa Calm     98% 0in /  0.0mm 0 W/m2
00:58 39 °F /  3.9 °C 38.5 °F /  3.6 °C 30.1in /  1018.0hPa Calm     98% 0in /  0.0mm 0 W/m2
01:03 39 °F /  3.9 °C 38.5 °F /  3.6 °C 30.1in /  1018.0hPa Calm     98% 0in /  0.0mm 0 W/m2
01:08 39 °F /  3.9 °C 38.5 °F /  3.6 °C 30.1in /  1017.6hPa Calm     98% 0in /  0.0mm 0 W/m2
01:13 39 °F /  3.9 °C 38.5 °F /  3.6 °C 30.1in /  1017.6hPa Calm     98% 0in /  0.0mm 0 W/m2
01:18 39 °F /  3.9 °C 38.5 °F /  3.6 °C 30.1in /  1017.6hPa Calm     98% 0in /  0.0mm 0 W/m2
01:23 39 °F /  3.9 °C 38.5 °F /  3.6 °C 30.1in /  1017.6hPa Calm     98% 0in /  0.0mm 0 W/m2
01:28 39 °F /  3.9 °C 38.5 °F /  3.6 °C 30.1in /  1017.6hPa Calm     98% 0in /  0.0mm 0 W/m2
01:33 39 °F /  3.9 °C 38.5 °F /  3.6 °C 30in /  1017.3hPa Calm     98% 0in /  0.0mm 0 W/m2
01:38 39 °F /  3.9 °C 38.5 °F /  3.6 °C 30in /  1017.3hPa Calm     98% 0in /  0.0mm 0 W/m2
01:43 39 °F /  3.9 °C 38.5 °F /  3.6 °C 30in /  1017.3hPa Calm     98% 0in /  0.0mm 0 W/m2
01:48 39 °F /  3.9 °C 38.5 °F /  3.6 °C 30in /  1017.3hPa Calm     98% 0in /  0.0mm 0 W/m2
01:53 38.8 °F /  3.8 °C 38.3 °F /  3.5 °C 30in /  1017.3hPa Calm     98% 0in /  0.0mm 0 W/m2
01:58 39 °F /  3.9 °C 38.5 °F /  3.6 °C 30in /  1017.3hPa Calm     98% 0in /  0.0mm 0 W/m2
02:04 39.2 °F /  4 °C 38.7 °F /  3.7 °C 30in /  1016.9hPa Calm     98% 0in /  0.0mm 0 W/m2
02:09 39.2 °F /  4 °C 38.7 °F /  3.7 °C 30in /  1016.9hPa Calm     98% 0in /  0.0mm 0 W/m2
02:14 39.4 °F /  4.1 °C 38.8 °F /  3.8 °C 30in /  1016.9hPa Calm     98% 0in /  0.0mm 0 W/m2
02:19 39.4 °F /  4.1 °C 38.8 °F /  3.8 °C 30in /  1016.9hPa Calm     98% 0in /  0.0mm 0 W/m2
02:35 39 °F /  3.9 °C 38.5 °F /  3.6 °C 30in /  1016.9hPa Calm     98% 0in /  0.0mm 0 W/m2
02:40 38.8 °F /  3.8 °C 38.3 °F /  3.5 °C 30in /  1016.9hPa Calm     98% 0in /  0.0mm 0 W/m2
02:45 38.8 °F /  3.8 °C 38.3 °F /  3.5 °C 30in /  1016.9hPa Calm     98% 0in /  0.0mm 0 W/m2
03:05 38.7 °F /  3.7 °C 38.1 °F /  3.4 °C 30in /  1016.6hPa Calm     98% 0in /  0.0mm 0 W/m2
03:10 39 °F /  3.9 °C 38.5 °F /  3.6 °C 30in /  1016.6hPa Calm     98% 0in /  0.0mm 0 W/m2
03:15 39.4 °F /  4.1 °C 38.8 °F /  3.8 °C 30in /  1016.6hPa Calm     98% 0in /  0.0mm 0 W/m2
03:20 39.6 °F /  4.2 °C 39 °F /  3.9 °C 30in /  1016.6hPa Calm     98% 0in /  0.0mm 0 W/m2
03:25 39.6 °F /  4.2 °C 39 °F /  3.9 °C 30in /  1016.6hPa Calm     98% 0in /  0.0mm 0 W/m2
03:30 39.7 °F /  4.3 °C 39.2 °F /  4 °C 30in /  1016.3hPa Calm     98% 0in /  0.0mm 0 W/m2
03:35 39.7 °F /  4.3 °C 39.2 °F /  4 °C 30in /  1016.3hPa Calm     98% 0in /  0.0mm 0 W/m2
03:40 39.9 °F /  4.4 °C 39.4 °F /  4.1 °C 30in /  1016.3hPa Calm     98% 0in /  0.0mm 0 W/m2
03:45 39.9 °F /  4.4 °C 39.4 °F /  4.1 °C 30in /  1016.3hPa Calm     98% 0in /  0.0mm 0 W/m2
03:50 40.1 °F /  4.5 °C 39.6 °F /  4.2 °C 30in /  1016.3hPa Calm     98% 0in /  0.0mm 0 W/m2
03:55 40.1 °F /  4.5 °C 39.6 °F /  4.2 °C 30in /  1016.3hPa Calm     98% 0in /  0.0mm 0 W/m2
04:00 40.5 °F /  4.7 °C 39.9 °F /  4.4 °C 30in /  1016.3hPa Calm     98% 0in /  0.0mm 0 W/m2
04:05 40.5 °F /  4.7 °C 39.9 °F /  4.4 °C 30in /  1016.3hPa Calm     98% 0in /  0.0mm 0 W/m2
04:10 40.5 °F /  4.7 °C 39.9 °F /  4.4 °C 30in /  1016.3hPa Calm     98% 0in /  0.0mm 0 W/m2
04:15 40.6 °F /  4.8 °C 40.1 °F /  4.5 °C 30in /  1016.3hPa Calm     98% 0in /  0.0mm 0 W/m2
04:20 40.6 °F /  4.8 °C 40.1 °F /  4.5 °C 30in /  1016.3hPa Calm     98% 0in /  0.0mm 0 W/m2
04:25 40.6 °F /  4.8 °C 40.1 °F /  4.5 °C 30in /  1016.3hPa Calm     98% 0in /  0.0mm 0 W/m2
04:30 40.6 °F /  4.8 °C 40.1 °F /  4.5 °C 30in /  1016.3hPa Calm     98% 0in /  0.0mm 0 W/m2
04:35 40.8 °F /  4.9 °C 40.3 °F /  4.6 °C 30in /  1015.9hPa Calm     98% 0in /  0.0mm 0 W/m2
04:40 40.8 °F /  4.9 °C 40.3 °F /  4.6 °C 30in /  1016.3hPa Calm     98% 0in /  0.0mm 0 W/m2
04:45 41 °F /  5 °C 40.5 °F /  4.7 °C 30in /  1015.9hPa Calm     98% 0in /  0.0mm 0 W/m2
04:50 41 °F /  5 °C 40.5 °F /  4.7 °C 30in /  1015.9hPa Calm     98% 0in /  0.0mm 0 W/m2
04:55 41 °F /  5 °C 40.5 °F /  4.7 °C 30in /  1015.9hPa Calm     98% 0in /  0.0mm 0 W/m2
05:00 41 °F /  5 °C 40.5 °F /  4.7 °C 30in /  1015.9hPa Calm     98% 0in /  0.0mm 0 W/m2
05:05 40.8 °F /  4.9 °C 40.3 °F /  4.6 °C 30in /  1015.9hPa Calm     98% 0in /  0.0mm 0 W/m2
05:10 40.8 °F /  4.9 °C 40.3 °F /  4.6 °C 30in /  1015.6hPa Calm     98% 0in /  0.0mm 0 W/m2
05:15 40.8 °F /  4.9 °C 40.3 °F /  4.6 °C 30in /  1015.9hPa Calm     98% 0in /  0.0mm 0 W/m2
05:20 40.8 °F /  4.9 °C 40.3 °F /  4.6 °C 30in /  1015.9hPa Calm     98% 0in /  0.0mm 0 W/m2
05:25 41 °F /  5 °C 40.5 °F /  4.7 °C 30in /  1015.9hPa Calm     98% 0in /  0.0mm 0 W/m2
05:30 41.2 °F /  5.1 °C 40.6 °F /  4.8 °C 30in /  1015.9hPa Calm     98% 0in /  0.0mm 0 W/m2
05:35 41.2 °F /  5.1 °C 40.6 °F /  4.8 °C 30in /  1015.9hPa Calm     98% 0in /  0.0mm 0 W/m2
05:41 41.2 °F /  5.1 °C 40.6 °F /  4.8 °C 30in /  1015.9hPa Calm     98% 0in /  0.0mm 0 W/m2
05:46 41.2 °F /  5.1 °C 40.6 °F /  4.8 °C 30in /  1015.9hPa Calm     98% 0in /  0.0mm 0 W/m2
05:51 41.2 °F /  5.1 °C 40.6 °F /  4.8 °C 30in /  1015.9hPa Calm     98% 0in /  0.0mm 0 W/m2
05:56 41 °F /  5 °C 40.5 °F /  4.7 °C 30in /  1015.6hPa Calm     98% 0in /  0.0mm 0 W/m2
06:01 40.8 °F /  4.9 °C 40.3 °F /  4.6 °C 30in /  1015.6hPa Calm     98% 0in /  0.0mm 0 W/m2
06:06 40.6 °F /  4.8 °C 40.1 °F /  4.5 °C 30in /  1015.6hPa Calm     98% 0in /  0.0mm 0 W/m2
06:11 40.5 °F /  4.7 °C 39.9 °F /  4.4 °C 30in /  1015.6hPa Calm     98% 0in /  0.0mm 0 W/m2
06:16 40.5 °F /  4.7 °C 39.9 °F /  4.4 °C 30in /  1015.6hPa Calm     98% 0in /  0.0mm 0 W/m2
06:21 40.5 °F /  4.7 °C 39.9 °F /  4.4 °C 30in /  1015.6hPa Calm     98% 0in /  0.0mm 0 W/m2
06:26 40.5 °F /  4.7 °C 39.9 °F /  4.4 °C 30in /  1015.6hPa Calm     98% 0in /  0.0mm 0 W/m2
06:31 40.6 °F /  4.8 °C 40.1 °F /  4.5 °C 30in /  1015.6hPa Calm     98% 0in /  0.0mm 0 W/m2
06:36 40.6 °F /  4.8 °C 40.1 °F /  4.5 °C 30in /  1015.6hPa Calm     98% 0in /  0.0mm 0 W/m2
06:41 40.6 °F /  4.8 °C 40.1 °F /  4.5 °C 30in /  1015.6hPa Calm     98% 0in /  0.0mm 0 W/m2
06:46 40.6 °F /  4.8 °C 40.1 °F /  4.5 °C 30in /  1015.6hPa Calm     98% 0in /  0.0mm 0 W/m2
06:51 40.6 °F /  4.8 °C 40.1 °F /  4.5 °C 30in /  1015.6hPa Calm     98% 0in /  0.0mm 0 W/m2
06:56 40.5 °F /  4.7 °C 39.9 °F /  4.4 °C 30in /  1015.6hPa Calm     98% 0in /  0.0mm 0 W/m2
07:01 40.5 °F /  4.7 °C 39.9 °F /  4.4 °C 30in /  1015.6hPa Calm     98% 0in /  0.0mm 0 W/m2
07:06 40.6 °F /  4.8 °C 40.1 °F /  4.5 °C 30in /  1015.6hPa Calm     98% 0in /  0.0mm 0 W/m2
07:11 40.6 °F /  4.8 °C 40.1 °F /  4.5 °C 30in /  1015.6hPa Calm     98% 0in /  0.0mm 0 W/m2
07:16 40.6 °F /  4.8 °C 40.1 °F /  4.5 °C 30in /  1015.6hPa Calm     98% 0in /  0.0mm 0 W/m2
07:21 40.6 °F /  4.8 °C 40.1 °F /  4.5 °C 30in /  1015.6hPa Calm     98% 0in /  0.0mm 0 W/m2
07:26 40.6 °F /  4.8 °C 40.1 °F /  4.5 °C 30in /  1015.6hPa Calm     98% 0in /  0.0mm 0 W/m2
07:31 40.6 °F /  4.8 °C 40.1 °F /  4.5 °C 30in /  1015.6hPa Calm     98% 0in /  0.0mm 0 W/m2
07:36 40.5 °F /  4.7 °C 39.9 °F /  4.4 °C 30in /  1015.6hPa Calm     98% 0in /  0.0mm 0 W/m2
07:41 40.5 °F /  4.7 °C 39.9 °F /  4.4 °C 30in /  1015.6hPa Calm     98% 0in /  0.0mm 0 W/m2
07:46 40.6 °F /  4.8 °C 40.1 °F /  4.5 °C 30in /  1015.6hPa Calm     98% 0in /  0.0mm 0 W/m2
07:51 40.8 °F /  4.9 °C 40.3 °F /  4.6 °C 30in /  1015.6hPa Calm     98% 0in /  0.0mm 0 W/m2
07:56 40.8 °F /  4.9 °C 40.3 °F /  4.6 °C 30in /  1015.6hPa Calm     98% 0in /  0.0mm 0 W/m2
08:01 40.8 °F /  4.9 °C 40.3 °F /  4.6 °C 30in /  1015.6hPa Calm     98% 0in /  0.0mm 0 W/m2
08:06 40.8 °F /  4.9 °C 40.3 °F /  4.6 °C 30in /  1015.6hPa West 0.9mph /  1.4km/h 1mph /  1.6km/h 98% 0in /  0.0mm 0 W/m2
08:11 40.6 °F /  4.8 °C 40.1 °F /  4.5 °C 30in /  1015.6hPa West 0.9mph /  1.4km/h 1mph /  1.6km/h 98% 0in /  0.0mm 0 W/m2
08:16 40.6 °F /  4.8 °C 40.1 °F /  4.5 °C 30in /  1015.6hPa ENE 0.9mph /  1.4km/h 4mph /  6.4km/h 98% 0in /  0.0mm 0 W/m2
08:35 42.4 °F /  5.8 °C 41.9 °F /  5.5 °C 30in /  1015.9hPa ENE 2mph /  3.2km/h 2mph /  3.2km/h 98% 0in /  0.0mm 5 W/m2
08:40 42.4 °F /  5.8 °C 41.9 °F /  5.5 °C 30in /  1015.9hPa Calm   2mph /  3.2km/h 98% 0in /  0.0mm 7 W/m2
08:45 42.6 °F /  5.9 °C 42.1 °F /  5.6 °C 30in /  1015.9hPa East 0.9mph /  1.4km/h 4mph /  6.4km/h 98% 0in /  0.0mm 7 W/m2
09:02 43.2 °F /  6.2 °C 42.6 °F /  5.9 °C 30in /  1016.3hPa ENE 2.9mph /  4.7km/h 4mph /  6.4km/h 98% 0in /  0.0mm 12 W/m2
09:07 43.5 °F /  6.4 °C 43 °F /  6.1 °C 30in /  1016.3hPa ENE 2mph /  3.2km/h 2mph /  3.2km/h 98% 0in /  0.0mm 14 W/m2
09:13 43.2 °F /  6.2 °C 42.6 °F /  5.9 °C 30in /  1016.3hPa ESE 0.9mph /  1.4km/h 2mph /  3.2km/h 98% 0in /  0.0mm 14 W/m2
09:18 43 °F /  6.1 °C 42.4 °F /  5.8 °C 30in /  1016.3hPa ENE 2mph /  3.2km/h 2mph /  3.2km/h 98% 0in /  0.0mm 16 W/m2
09:38 42.4 °F /  5.8 °C 41.9 °F /  5.5 °C 30in /  1016.3hPa Calm   2mph /  3.2km/h 98% 0in /  0.0mm 30 W/m2
09:43 43 °F /  6.1 °C 42.4 °F /  5.8 °C 30in /  1016.3hPa NE 2mph /  3.2km/h 3mph /  4.8km/h 98% 0in /  0.0mm 46 W/m2
09:48 43.3 °F /  6.3 °C 42.8 °F /  6 °C 30in /  1016.3hPa NE 2mph /  3.2km/h 2mph /  3.2km/h 98% 0in /  0.0mm 53 W/m2
09:53 43.9 °F /  6.6 °C 43.3 °F /  6.3 °C 30in /  1016.3hPa NE 0.9mph /  1.4km/h 2mph /  3.2km/h 98% 0in /  0.0mm 51 W/m2
10:10 44.8 °F /  7.1 °C 44.2 °F /  6.8 °C 30in /  1016.3hPa Calm   1mph /  1.6km/h 98% 0in /  0.0mm 56 W/m2
10:15 45 °F /  7.2 °C 44.4 °F /  6.9 °C 30in /  1016.3hPa East 2mph /  3.2km/h 2mph /  3.2km/h 98% 0in /  0.0mm 51 W/m2
10:20 45 °F /  7.2 °C 44.4 °F /  6.9 °C 30in /  1016.3hPa East 2mph /  3.2km/h 3mph /  4.8km/h 98% 0in /  0.0mm 54 W/m2
10:25 45.1 °F /  7.3 °C 44.6 °F /  7 °C 30in /  1016.3hPa Calm   1mph /  1.6km/h 98% 0in /  0.0mm 51 W/m2
10:30 45.1 °F /  7.3 °C 44.6 °F /  7 °C 30in /  1016.3hPa East 0.9mph /  1.4km/h 1mph /  1.6km/h 98% 0in /  0.0mm 56 W/m2
10:35 45.1 °F /  7.3 °C 44.6 °F /  7 °C 30in /  1016.3hPa Calm   1mph /  1.6km/h 98% 0in /  0.0mm 47 W/m2
10:40 45.3 °F /  7.4 °C 44.8 °F /  7.1 °C 30in /  1016.3hPa Calm   1mph /  1.6km/h 98% 0in /  0.0mm 49 W/m2
10:45 45.3 °F /  7.4 °C 44.8 °F /  7.1 °C 30in /  1016.3hPa Calm   2mph /  3.2km/h 98% 0in /  0.0mm 53 W/m2
10:50 45.5 °F /  7.5 °C 45 °F /  7.2 °C 30in /  1016.3hPa Calm   1mph /  1.6km/h 98% 0in /  0.0mm 60 W/m2
10:55 45.7 °F /  7.6 °C 45.1 °F /  7.3 °C 30in /  1016.3hPa NNE 0.9mph /  1.4km/h 2mph /  3.2km/h 98% 0in /  0.0mm 77 W/m2
11:00 45.9 °F /  7.7 °C 45.3 °F /  7.4 °C 30in /  1016.3hPa NE 2mph /  3.2km/h 2mph /  3.2km/h 98% 0in /  0.0mm 76 W/m2
11:05 46.2 °F /  7.9 °C 45.7 °F /  7.6 °C 30in /  1016.3hPa Calm   2mph /  3.2km/h 98% 0in /  0.0mm 83 W/m2
11:10 46.8 °F /  8.2 °C 46.2 °F /  7.9 °C 30in /  1016.3hPa NE 0.9mph /  1.4km/h 3mph /  4.8km/h 98% 0in /  0.0mm 93 W/m2
11:15 47.1 °F /  8.4 °C 46.6 °F /  8.1 °C 30in /  1016.3hPa Calm   1mph /  1.6km/h 98% 0in /  0.0mm 98 W/m2
11:20 47.3 °F /  8.5 °C 47.1 °F /  8.4 °C 30in /  1016.3hPa ENE 4mph /  6.4km/h 7mph /  11.3km/h 99% 0in /  0.0mm 102 W/m2
11:25 47.7 °F /  8.7 °C 47.1 °F /  8.4 °C 30in /  1016.3hPa ENE 2.9mph /  4.7km/h 4mph /  6.4km/h 98% 0in /  0.0mm 104 W/m2
11:30 47.8 °F /  8.8 °C 47.7 °F /  8.7 °C 30in /  1015.9hPa NE 2.9mph /  4.7km/h 5mph /  8km/h 99% 0in /  0.0mm 100 W/m2
11:35 48.2 °F /  9 °C 47.7 °F /  8.7 °C 30in /  1015.9hPa ENE 2.9mph /  4.7km/h 6mph /  9.7km/h 98% 0in /  0.0mm 107 W/m2
11:40 48.6 °F /  9.2 °C 48 °F /  8.9 °C 30in /  1015.9hPa North 4mph /  6.4km/h 4mph /  6.4km/h 98% 0in /  0.0mm 107 W/m2
11:45 48.7 °F /  9.3 °C 48.2 °F /  9 °C 30in /  1015.9hPa NNE 2.9mph /  4.7km/h 3mph /  4.8km/h 98% 0in /  0.0mm 98 W/m2
11:50 49.3 °F /  9.6 °C 48.7 °F /  9.3 °C 30in /  1015.9hPa North 0.9mph /  1.4km/h 4mph /  6.4km/h 98% 0in /  0.0mm 109 W/m2
11:55 50 °F /  10 °C 49.5 °F /  9.7 °C 30in /  1015.6hPa ENE 0.9mph /  1.4km/h 6mph /  9.7km/h 98% 0in /  0.0mm 95 W/m2
12:00 50.5 °F /  10.3 °C 50 °F /  10 °C 30in /  1015.6hPa NNW 0.9mph /  1.4km/h 3mph /  4.8km/h 98% 0in /  0.0mm 95 W/m2
12:05 51.1 °F /  10.6 °C 50.5 °F /  10.3 °C 30in /  1015.6hPa North 2.9mph /  4.7km/h 3mph /  4.8km/h 98% 0in /  0.0mm 86 W/m2
12:10 51.6 °F /  10.9 °C 51.1 °F /  10.6 °C 30in /  1015.6hPa ESE 0.9mph /  1.4km/h 8mph /  12.9km/h 98% 0in /  0.0mm 86 W/m2
12:15 52.3 °F /  11.3 °C 51.4 °F /  10.8 °C 30in /  1015.6hPa WNW 2.9mph /  4.7km/h 7mph /  11.3km/h 97% 0in /  0.0mm 91 W/m2
12:20 53.1 °F /  11.7 °C 49.8 °F /  9.9 °C 30in /  1015.6hPa ENE 2.9mph /  4.7km/h 3mph /  4.8km/h 89% 0in /  0.0mm 77 W/m2
12:25 53.2 °F /  11.8 °C 49.1 °F /  9.5 °C 30in /  1015.2hPa ENE 2mph /  3.2km/h 5mph /  8km/h 86% 0in /  0.0mm 65 W/m2
12:30 53.4 °F /  11.9 °C 48.7 °F /  9.3 °C 30in /  1015.2hPa NNW 4mph /  6.4km/h 4mph /  6.4km/h 84% 0in /  0.0mm 70 W/m2
12:35 53.6 °F /  12 °C 48.6 °F /  9.2 °C 30in /  1015.2hPa North 0.9mph /  1.4km/h 3mph /  4.8km/h 83% 0in /  0.0mm 63 W/m2
12:40 53.8 °F /  12.1 °C 48.4 °F /  9.1 °C 30in /  1015.2hPa NNW 2.9mph /  4.7km/h 3mph /  4.8km/h 82% 0in /  0.0mm 63 W/m2
12:45 53.8 °F /  12.1 °C 48 °F /  8.9 °C 30in /  1015.2hPa NW 2mph /  3.2km/h 4mph /  6.4km/h 81% 0in /  0.0mm 72 W/m2
12:50 54 °F /  12.2 °C 48.2 °F /  9 °C 30in /  1015.2hPa North 2mph /  3.2km/h 3mph /  4.8km/h 81% 0in /  0.0mm 60 W/m2
13:10 54 °F /  12.2 °C 48 °F /  8.9 °C 30in /  1015.2hPa SSE 2.9mph /  4.7km/h 3mph /  4.8km/h 80% 0in /  0.0mm 104 W/m2
13:15 54.1 °F /  12.3 °C 48 °F /  8.9 °C 30in /  1014.9hPa ENE 2.9mph /  4.7km/h 4mph /  6.4km/h 80% 0in /  0.0mm 111 W/m2
13:20 54.1 °F /  12.3 °C 48 °F /  8.9 °C 30in /  1014.9hPa East 0.9mph /  1.4km/h 4mph /  6.4km/h 80% 0in /  0.0mm 113 W/m2
13:25 54.3 °F /  12.4 °C 48.2 °F /  9 °C 30in /  1014.9hPa NNW 0.9mph /  1.4km/h 5mph /  8km/h 80% 0in /  0.0mm 113 W/m2
13:30 54.3 °F /  12.4 °C 48.2 °F /  9 °C 30in /  1014.9hPa ESE 2mph /  3.2km/h 3mph /  4.8km/h 80% 0in /  0.0mm 118 W/m2
13:35 54.5 °F /  12.5 °C 48.2 °F /  9 °C 30in /  1014.9hPa NE 2mph /  3.2km/h 4mph /  6.4km/h 79% 0in /  0.0mm 123 W/m2
13:40 54.7 °F /  12.6 °C 48.4 °F /  9.1 °C 30in /  1014.9hPa West 2.9mph /  4.7km/h 3mph /  4.8km/h 79% 0in /  0.0mm 114 W/m2
13:45 54.9 °F /  12.7 °C 48.2 °F /  9 °C 30in /  1014.9hPa South 0.9mph /  1.4km/h 6mph /  9.7km/h 78% 0in /  0.0mm 104 W/m2
13:50 55 °F /  12.8 °C 48.4 °F /  9.1 °C 30in /  1014.9hPa WSW 0.9mph /  1.4km/h 6mph /  9.7km/h 78% 0in /  0.0mm 105 W/m2
13:55 55 °F /  12.8 °C 48.4 °F /  9.1 °C 30in /  1014.9hPa ENE 2mph /  3.2km/h 3mph /  4.8km/h 78% 0in /  0.0mm 104 W/m2
14:12 55.2 °F /  12.9 °C 48.2 °F /  9 °C 30in /  1014.9hPa NNE 2mph /  3.2km/h 4mph /  6.4km/h 77% 0in /  0.0mm 88 W/m2
14:17 55.2 °F /  12.9 °C 48.2 °F /  9 °C 30in /  1014.9hPa North 2mph /  3.2km/h 2mph /  3.2km/h 77% 0in /  0.0mm 76 W/m2
14:22 55.2 °F /  12.9 °C 48.2 °F /  9 °C 30in /  1014.9hPa Calm   1mph /  1.6km/h 77% 0in /  0.0mm 72 W/m2
14:27 55.2 °F /  12.9 °C 48.2 °F /  9 °C 30in /  1014.9hPa NE 2mph /  3.2km/h 3mph /  4.8km/h 77% 0in /  0.0mm 72 W/m2
14:32 55.2 °F /  12.9 °C 48.2 °F /  9 °C 30in /  1014.9hPa NE 0.9mph /  1.4km/h 4mph /  6.4km/h 77% 0in /  0.0mm 69 W/m2
14:37 55.2 °F /  12.9 °C 48.2 °F /  9 °C 30in /  1014.9hPa Calm   2mph /  3.2km/h 77% 0in /  0.0mm 63 W/m2
14:42 55 °F /  12.8 °C 48.4 °F /  9.1 °C 30in /  1014.9hPa North 0.9mph /  1.4km/h 4mph /  6.4km/h 78% 0in /  0.0mm 56 W/m2
14:47 55 °F /  12.8 °C 48.4 °F /  9.1 °C 30in /  1014.9hPa ENE 0.9mph /  1.4km/h 3mph /  4.8km/h 78% 0in /  0.0mm 51 W/m2
14:52 54.9 °F /  12.7 °C 48.2 °F /  9 °C 30in /  1014.9hPa NE 0.9mph /  1.4km/h 4mph /  6.4km/h 78% 0in /  0.0mm 47 W/m2
14:57 54.9 °F /  12.7 °C 48.2 °F /  9 °C 30in /  1014.9hPa NE 2mph /  3.2km/h 3mph /  4.8km/h 78% 0in /  0.0mm 39 W/m2
15:02 54.9 °F /  12.7 °C 48.2 °F /  9 °C 30in /  1014.9hPa ENE 0.9mph /  1.4km/h 4mph /  6.4km/h 78% 0in /  0.0mm 35 W/m2
15:07 54.9 °F /  12.7 °C 48.2 °F /  9 °C 30in /  1014.9hPa Calm   2mph /  3.2km/h 78% 0in /  0.0mm 40 W/m2
15:12 54.9 °F /  12.7 °C 48.2 °F /  9 °C 30in /  1014.9hPa NNE 0.9mph /  1.4km/h 2mph /  3.2km/h 78% 0in /  0.0mm 49 W/m2
15:17 54.9 °F /  12.7 °C 48.2 °F /  9 °C 30in /  1014.9hPa ENE 2.9mph /  4.7km/h 3mph /  4.8km/h 78% 0in /  0.0mm 47 W/m2
15:22 54.9 °F /  12.7 °C 48.2 °F /  9 °C 30in /  1014.9hPa ENE 2.9mph /  4.7km/h 5mph /  8km/h 78% 0in /  0.0mm 49 W/m2
15:27 54.9 °F /  12.7 °C 48.2 °F /  9 °C 30in /  1014.9hPa North 2.9mph /  4.7km/h 3mph /  4.8km/h 78% 0in /  0.0mm 42 W/m2
15:32 54.9 °F /  12.7 °C 48.2 °F /  9 °C 30in /  1014.9hPa NNE 2.9mph /  4.7km/h 3mph /  4.8km/h 78% 0in /  0.0mm 40 W/m2
15:37 55 °F /  12.8 °C 48 °F /  8.9 °C 30in /  1014.9hPa East 4mph /  6.4km/h 6mph /  9.7km/h 77% 0in /  0.0mm 33 W/m2
15:42 55 °F /  12.8 °C 48 °F /  8.9 °C 30in /  1014.9hPa Calm   2mph /  3.2km/h 77% 0in /  0.0mm 30 W/m2
15:47 55 °F /  12.8 °C 48 °F /  8.9 °C 30in /  1014.9hPa ESE 2mph /  3.2km/h 5mph /  8km/h 77% 0in /  0.0mm 28 W/m2
15:52 55 °F /  12.8 °C 48 °F /  8.9 °C 30in /  1014.9hPa NW 2mph /  3.2km/h 3mph /  4.8km/h 77% 0in /  0.0mm 26 W/m2
15:57 55 °F /  12.8 °C 48 °F /  8.9 °C 30in /  1014.9hPa Calm   2mph /  3.2km/h 77% 0in /  0.0mm 25 W/m2
16:02 55.2 °F /  12.9 °C 48.2 °F /  9 °C 30in /  1014.9hPa North 0.9mph /  1.4km/h 2mph /  3.2km/h 77% 0in /  0.0mm 23 W/m2
16:07 55 °F /  12.8 °C 47.7 °F /  8.7 °C 30in /  1014.9hPa Calm   4mph /  6.4km/h 76% 0in /  0.0mm 19 W/m2
16:12 55 °F /  12.8 °C 47.7 °F /  8.7 °C 30in /  1014.9hPa NW 4.9mph /  7.9km/h 7mph /  11.3km/h 76% 0in /  0.0mm 14 W/m2
16:17 55.2 °F /  12.9 °C 47.8 °F /  8.8 °C 30in /  1014.9hPa NNW 6mph /  9.7km/h 8mph /  12.9km/h 76% 0in /  0.0mm 12 W/m2
16:22 55.2 °F /  12.9 °C 47.8 °F /  8.8 °C 30in /  1015.2hPa Calm   2mph /  3.2km/h 76% 0in /  0.0mm 11 W/m2
16:27 55 °F /  12.8 °C 47.7 °F /  8.7 °C 30in /  1015.2hPa ENE 2.9mph /  4.7km/h 8mph /  12.9km/h 76% 0in /  0.0mm 5 W/m2
16:32 55 °F /  12.8 °C 47.7 °F /  8.7 °C 30in /  1015.2hPa ENE 2mph /  3.2km/h 4mph /  6.4km/h 76% 0in /  0.0mm 0 W/m2
16:37 55 °F /  12.8 °C 47.7 °F /  8.7 °C 30in /  1015.2hPa ENE 0.9mph /  1.4km/h 2mph /  3.2km/h 76% 0in /  0.0mm 0 W/m2
16:42 54.9 °F /  12.7 °C 47.5 °F /  8.6 °C 30in /  1015.2hPa NE 0.9mph /  1.4km/h 4mph /  6.4km/h 76% 0in /  0.0mm 0 W/m2
16:47 54.9 °F /  12.7 °C 47.8 °F /  8.8 °C 30in /  1015.2hPa East 2.9mph /  4.7km/h 4mph /  6.4km/h 77% 0in /  0.0mm 0 W/m2
16:52 54.5 °F /  12.5 °C 47.8 °F /  8.8 °C 30in /  1015.2hPa NNE 2mph /  3.2km/h 4mph /  6.4km/h 78% 0in /  0.0mm 0 W/m2
16:57 54.1 °F /  12.3 °C 47.8 °F /  8.8 °C 30in /  1015.2hPa East 0.9mph /  1.4km/h 3mph /  4.8km/h 79% 0in /  0.0mm 0 W/m2
17:02 54 °F /  12.2 °C 48 °F /  8.9 °C 30in /  1015.2hPa East 0.9mph /  1.4km/h 3mph /  4.8km/h 80% 0in /  0.0mm 0 W/m2
17:07 53.8 °F /  12.1 °C 47.8 °F /  8.8 °C 30in /  1015.2hPa ENE 0.9mph /  1.4km/h 3mph /  4.8km/h 80% 0in /  0.0mm 0 W/m2
17:12 53.4 °F /  11.9 °C 47.7 °F /  8.7 °C 30in /  1015.2hPa East 0.9mph /  1.4km/h 4mph /  6.4km/h 81% 0in /  0.0mm 0 W/m2
17:17 53.4 °F /  11.9 °C 47.7 °F /  8.7 °C 30in /  1015.6hPa ENE 0.9mph /  1.4km/h 4mph /  6.4km/h 81% 0in /  0.0mm 0 W/m2
17:22 53.2 °F /  11.8 °C 47.5 °F /  8.6 °C 30in /  1015.2hPa East 2mph /  3.2km/h 3mph /  4.8km/h 81% 0in /  0.0mm 0 W/m2
17:27 53.2 °F /  11.8 °C 47.8 °F /  8.8 °C 30in /  1015.6hPa ENE 2mph /  3.2km/h 4mph /  6.4km/h 82% 0in /  0.0mm 0 W/m2
17:32 53.1 °F /  11.7 °C 47.7 °F /  8.7 °C 30in /  1015.6hPa East 0.9mph /  1.4km/h 2mph /  3.2km/h 82% 0in /  0.0mm 0 W/m2
17:37 53.1 °F /  11.7 °C 47.7 °F /  8.7 °C 30in /  1015.6hPa ENE 0.9mph /  1.4km/h 2mph /  3.2km/h 82% 0in /  0.0mm 0 W/m2
17:42 53.1 °F /  11.7 °C 47.7 °F /  8.7 °C 30in /  1015.6hPa ENE 2.9mph /  4.7km/h 3mph /  4.8km/h 82% 0in /  0.0mm 0 W/m2
17:47 53.1 °F /  11.7 °C 47.7 °F /  8.7 °C 30in /  1015.6hPa East 0.9mph /  1.4km/h 2mph /  3.2km/h 82% 0in /  0.0mm 0 W/m2
17:52 53.1 °F /  11.7 °C 47.7 °F /  8.7 °C 30in /  1015.6hPa ENE 0.9mph /  1.4km/h 3mph /  4.8km/h 82% 0in /  0.0mm 0 W/m2
17:57 52.9 °F /  11.6 °C 47.5 °F /  8.6 °C 30in /  1015.6hPa ENE 0.9mph /  1.4km/h 2mph /  3.2km/h 82% 0in /  0.0mm 0 W/m2
18:02 52.9 °F /  11.6 °C 47.8 °F /  8.8 °C 30in /  1015.9hPa East 2mph /  3.2km/h 2mph /  3.2km/h 83% 0in /  0.0mm 0 W/m2
18:07 52.7 °F /  11.5 °C 48 °F /  8.9 °C 30in /  1015.9hPa Calm     84% 0in /  0.0mm 0 W/m2
18:12 52.3 °F /  11.3 °C 48 °F /  8.9 °C 30in /  1015.9hPa East 2mph /  3.2km/h 2mph /  3.2km/h 85% 0in /  0.0mm 0 W/m2
18:17 52.2 °F /  11.2 °C 47.8 °F /  8.8 °C 30in /  1016.3hPa NNE 0.9mph /  1.4km/h 2mph /  3.2km/h 85% 0in /  0.0mm 0 W/m2
18:22 52.2 °F /  11.2 °C 48 °F /  8.9 °C 30in /  1016.3hPa ESE 2.9mph /  4.7km/h 4mph /  6.4km/h 86% 0in /  0.0mm 0 W/m2
18:27 52.2 °F /  11.2 °C 48 °F /  8.9 °C 30in /  1016.3hPa NNW 2.9mph /  4.7km/h 3mph /  4.8km/h 86% 0in /  0.0mm 0 W/m2
18:33 52.3 °F /  11.3 °C 48.2 °F /  9 °C 30in /  1016.3hPa West 0.9mph /  1.4km/h 1mph /  1.6km/h 86% 0in /  0.0mm 0 W/m2
18:38 52.5 °F /  11.4 °C 48.2 °F /  9 °C 30in /  1016.3hPa Calm   2mph /  3.2km/h 85% 0in /  0.0mm 0 W/m2
18:43 52.5 °F /  11.4 °C 48.4 °F /  9.1 °C 30in /  1016.3hPa Calm     86% 0in /  0.0mm 0 W/m2
18:48 52.3 °F /  11.3 °C 48.6 °F /  9.2 °C 30in /  1016.3hPa Calm   2mph /  3.2km/h 87% 0in /  0.0mm 0 W/m2
18:53 52 °F /  11.1 °C 48.2 °F /  9 °C 30in /  1016.6hPa WNW 2mph /  3.2km/h 3mph /  4.8km/h 87% 0in /  0.0mm 0 W/m2
18:58 52 °F /  11.1 °C 48.2 °F /  9 °C 30in /  1016.6hPa Calm   1mph /  1.6km/h 87% 0in /  0.0mm 0 W/m2
19:03 51.8 °F /  11 °C 48.4 °F /  9.1 °C 30in /  1016.6hPa WNW 0.9mph /  1.4km/h 3mph /  4.8km/h 88% 0in /  0.0mm 0 W/m2
19:08 51.6 °F /  10.9 °C 48.2 °F /  9 °C 30in /  1016.6hPa Calm   1mph /  1.6km/h 88% 0in /  0.0mm 0 W/m2
19:13 51.4 °F /  10.8 °C 48.4 °F /  9.1 °C 30in /  1016.6hPa Calm     89% 0in /  0.0mm 0 W/m2
19:18 51.3 °F /  10.7 °C 48.4 °F /  9.1 °C 30in /  1016.6hPa Calm   1mph /  1.6km/h 90% 0.01in /  0.2mm 0 W/m2
19:23 51.1 °F /  10.6 °C 48.2 °F /  9 °C 30in /  1016.6hPa SW 2mph /  3.2km/h 2mph /  3.2km/h 90% 0.01in /  0.2mm 0 W/m2
19:28 51.1 °F /  10.6 °C 48.6 °F /  9.2 °C 30in /  1016.6hPa Calm   1mph /  1.6km/h 91% 0.01in /  0.2mm 0 W/m2
19:33 51.1 °F /  10.6 °C 48.6 °F /  9.2 °C 30in /  1016.6hPa Calm     91% 0.01in /  0.2mm 0 W/m2
19:38 51.1 °F /  10.6 °C 48.6 °F /  9.2 °C 30in /  1016.6hPa Calm     91% 0.01in /  0.2mm 0 W/m2
19:43 50.9 °F /  10.5 °C 48.4 °F /  9.1 °C 30in /  1016.6hPa Calm     91% 0.01in /  0.2mm 0 W/m2
19:48 50.9 °F /  10.5 °C 48.4 °F /  9.1 °C 30in /  1016.6hPa Calm     91% 0.01in /  0.2mm 0 W/m2
19:53 50.7 °F /  10.4 °C 48.6 °F /  9.2 °C 30in /  1016.6hPa Calm     92% 0.01in /  0.2mm 0 W/m2
19:58 50.7 °F /  10.4 °C 48.6 °F /  9.2 °C 30in /  1016.6hPa Calm     92% 0.01in /  0.2mm 0 W/m2
20:03 50.5 °F /  10.3 °C 48.4 °F /  9.1 °C 30in /  1016.6hPa North 0.9mph /  1.4km/h 2mph /  3.2km/h 92% 0.01in /  0.2mm 0 W/m2
20:08 50.5 °F /  10.3 °C 48.4 °F /  9.1 °C 30in /  1016.6hPa Calm     92% 0.01in /  0.2mm 0 W/m2
20:13 50.4 °F /  10.2 °C 48.4 °F /  9.1 °C 30in /  1016.6hPa Calm   2mph /  3.2km/h 93% 0.01in /  0.2mm 0 W/m2
20:18 50.4 °F /  10.2 °C 48.2 °F /  9 °C 30in /  1016.6hPa Calm     92% 0in /  0.0mm 0 W/m2
20:23 50.2 °F /  10.1 °C 48.2 °F /  9 °C 30in /  1016.6hPa Calm     93% 0in /  0.0mm 0 W/m2
20:28 50 °F /  10 °C 48 °F /  8.9 °C 30in /  1016.9hPa Calm     93% 0in /  0.0mm 0 W/m2
20:33 49.8 °F /  9.9 °C 47.8 °F /  8.8 °C 30in /  1016.9hPa Calm     93% 0in /  0.0mm 0 W/m2
20:38 49.6 °F /  9.8 °C 47.7 °F /  8.7 °C 30in /  1016.9hPa Calm     93% 0in /  0.0mm 0 W/m2
20:43 49.6 °F /  9.8 °C 48 °F /  8.9 °C 30in /  1016.9hPa Calm     94% 0in /  0.0mm 0 W/m2
20:48 49.5 °F /  9.7 °C 47.8 °F /  8.8 °C 30in /  1016.9hPa Calm     94% 0in /  0.0mm 0 W/m2
20:53 49.5 °F /  9.7 °C 47.8 °F /  8.8 °C 30in /  1016.9hPa Calm     94% 0in /  0.0mm 0 W/m2
20:58 49.3 °F /  9.6 °C 47.7 °F /  8.7 °C 30in /  1016.9hPa Calm     94% 0in /  0.0mm 0 W/m2
21:03 49.3 °F /  9.6 °C 47.7 °F /  8.7 °C 30in /  1016.9hPa Calm     94% 0in /  0.0mm 0 W/m2
21:08 49.1 °F /  9.5 °C 47.5 °F /  8.6 °C 30in /  1016.9hPa Calm     94% 0in /  0.0mm 0 W/m2
21:29 48.7 °F /  9.3 °C 47.3 °F /  8.5 °C 30in /  1016.9hPa Calm     95% 0in /  0.0mm 0 W/m2
21:34 48.7 °F /  9.3 °C 47.3 °F /  8.5 °C 30in /  1016.9hPa Calm   1mph /  1.6km/h 95% 0in /  0.0mm 0 W/m2
21:39 48.7 °F /  9.3 °C 47.3 °F /  8.5 °C 30in /  1016.9hPa East 2.9mph /  4.7km/h 4mph /  6.4km/h 95% 0in /  0.0mm 0 W/m2
21:44 48.7 °F /  9.3 °C 47.3 °F /  8.5 °C 30in /  1016.9hPa ENE 2mph /  3.2km/h 3mph /  4.8km/h 95% 0in /  0.0mm 0 W/m2
21:49 48.9 °F /  9.4 °C 47.5 °F /  8.6 °C 30in /  1016.9hPa ENE 0.9mph /  1.4km/h 2mph /  3.2km/h 95% 0in /  0.0mm 0 W/m2
21:54 49.1 °F /  9.5 °C 47.7 °F /  8.7 °C 30in /  1016.9hPa Calm     95% 0in /  0.0mm 0 W/m2
21:59 48.9 °F /  9.4 °C 47.5 °F /  8.6 °C 30in /  1016.9hPa Calm     95% 0in /  0.0mm 0 W/m2
22:04 48.7 °F /  9.3 °C 47.3 °F /  8.5 °C 30in /  1016.9hPa Calm   1mph /  1.6km/h 95% 0in /  0.0mm 0 W/m2
22:09 48.7 °F /  9.3 °C 47.3 °F /  8.5 °C 30in /  1016.9hPa Calm     95% 0in /  0.0mm 0 W/m2
22:14 48.6 °F /  9.2 °C 47.1 °F /  8.4 °C 30in /  1016.9hPa Calm     95% 0in /  0.0mm 0 W/m2
22:19 48.6 °F /  9.2 °C 47.1 °F /  8.4 °C 30in /  1016.9hPa Calm     95% 0in /  0.0mm 0 W/m2
22:24 48.4 °F /  9.1 °C 46.9 °F /  8.3 °C 30in /  1016.9hPa Calm     95% 0in /  0.0mm 0 W/m2
22:29 48.4 °F /  9.1 °C 46.9 °F /  8.3 °C 30in /  1016.9hPa Calm     95% 0in /  0.0mm 0 W/m2
22:34 48.2 °F /  9 °C 46.8 °F /  8.2 °C 30in /  1016.9hPa Calm     95% 0in /  0.0mm 0 W/m2
22:39 48 °F /  8.9 °C 46.6 °F /  8.1 °C 30in /  1016.9hPa Calm     95% 0in /  0.0mm 0 W/m2
22:44 48 °F /  8.9 °C 46.6 °F /  8.1 °C 30in /  1016.9hPa Calm     95% 0in /  0.0mm 0 W/m2
22:49 48 °F /  8.9 °C 46.6 °F /  8.1 °C 30in /  1016.9hPa Calm     95% 0in /  0.0mm 0 W/m2
22:54 48 °F /  8.9 °C 46.6 °F /  8.1 °C 30in /  1016.9hPa Calm     95% 0in /  0.0mm 0 W/m2
22:59 47.8 °F /  8.8 °C 46.4 °F /  8 °C 30in /  1016.9hPa Calm     95% 0in /  0.0mm 0 W/m2
23:04 47.8 °F /  8.8 °C 46.4 °F /  8 °C 30in /  1016.9hPa Calm     95% 0in /  0.0mm 0 W/m2
23:09 47.8 °F /  8.8 °C 46.8 °F /  8.2 °C 30in /  1016.9hPa Calm     96% 0in /  0.0mm 0 W/m2
23:14 47.8 °F /  8.8 °C 46.8 °F /  8.2 °C 30in /  1016.9hPa ENE 0.9mph /  1.4km/h 2mph /  3.2km/h 96% 0in /  0.0mm 0 W/m2
23:19 47.8 °F /  8.8 °C 46.8 °F /  8.2 °C 30in /  1016.9hPa Calm     96% 0in /  0.0mm 0 W/m2
23:24 47.8 °F /  8.8 °C 46.8 °F /  8.2 °C 30in /  1016.9hPa Calm   2mph /  3.2km/h 96% 0in /  0.0mm 0 W/m2
23:29 47.8 °F /  8.8 °C 46.8 °F /  8.2 °C 30in /  1016.9hPa Calm     96% 0in /  0.0mm 0 W/m2
23:34 47.8 °F /  8.8 °C 46.8 °F /  8.2 °C 30in /  1016.9hPa Calm     96% 0in /  0.0mm 0 W/m2
23:39 47.8 °F /  8.8 °C 46.8 °F /  8.2 °C 30in /  1016.9hPa Calm     96% 0in /  0.0mm 0 W/m2
23:44 47.8 °F /  8.8 °C 46.8 °F /  8.2 °C 30in /  1016.9hPa Calm     96% 0in /  0.0mm 0 W/m2
23:49 48 °F /  8.9 °C 46.9 °F /  8.3 °C 30in /  1016.9hPa ENE 0.9mph /  1.4km/h 2mph /  3.2km/h 96% 0in /  0.0mm 0 W/m2
23:54 48 °F /  8.9 °C 46.9 °F /  8.3 °C 30in /  1016.9hPa Calm     96% 0in /  0.0mm 0 W/m2
Juneau County Weather
Compliments of Weather Underground - 4 mb